ENAT

Alta Airport

Airport
ICAO code
ENAT
IATA Code
ALF
Summary
ICAO Region
EUR
ICAO Territory
Location

Elvebakken, Troms og Finnmark

Serving
Alta
Elevation
10 ft
Coordinates
69° 58' 34" N , 23° 22' 18" E
KCC
Airport CFIT
Altimeter Temperature Error Correction
Airport GND
Aircraft Ground De/Anti Icing
Airport RE
Landing on Contaminated Runways
Metar
Observation
ENAT 272120Z 19003KT 110V250 CAVOK 02/M02 Q0991 RMK WIND 700FT 21020G30KT
Station
Alta Lufthavn
Date/Time
2023-01-27 22:20:00
Wind direction
190°
Wind speed
03 kts
Lowest cloud amount
clouds and visibility OK
Temperature
2°C
Dew point
-2°C
Humidity
74%
QNH
991 hPa
Weather condition
n/a

Alta Airport is an international airport serving Alta, a town and municipality in Troms og Finnmark, Norway. The airport is located at Elvebakken, 2.5 nm east of the city center.

Runways

Designator Length Width Surface Rops
11/29 2184 40 ASP Yes/Yes

Airport map

Aerial View

SKYbrary Partners:

Safety knowledge contributed by: